sensor_id;sensor_type;location;lat;lon;timestamp;temperature;humidity
14771;DHT22;7477;45.222;5.688;2023-07-22T00:01:52;23.20;83.40
14771;DHT22;7477;45.222;5.688;2023-07-22T00:05:12;23.20;83.40
14771;DHT22;7477;45.222;5.688;2023-07-22T00:08:35;23.10;83.20
14771;DHT22;7477;45.222;5.688;2023-07-22T00:11:54;23.10;83.10
14771;DHT22;7477;45.222;5.688;2023-07-22T00:15:13;23.00;83.20
14771;DHT22;7477;45.222;5.688;2023-07-22T00:18:33;23.00;83.30
14771;DHT22;7477;45.222;5.688;2023-07-22T00:21:53;22.90;83.30
14771;DHT22;7477;45.222;5.688;2023-07-22T00:25:12;22.90;83.30
14771;DHT22;7477;45.222;5.688;2023-07-22T00:28:32;22.90;83.00
14771;DHT22;7477;45.222;5.688;2023-07-22T00:31:51;22.90;83.10
14771;DHT22;7477;45.222;5.688;2023-07-22T00:35:10;22.80;83.20
14771;DHT22;7477;45.222;5.688;2023-07-22T00:38:29;22.80;83.50
14771;DHT22;7477;45.222;5.688;2023-07-22T00:41:48;22.80;83.10
14771;DHT22;7477;45.222;5.688;2023-07-22T00:45:07;22.70;83.20
14771;DHT22;7477;45.222;5.688;2023-07-22T00:48:27;22.70;83.10
14771;DHT22;7477;45.222;5.688;2023-07-22T00:51:46;22.70;83.20
14771;DHT22;7477;45.222;5.688;2023-07-22T00:55:05;22.70;83.10
14771;DHT22;7477;45.222;5.688;2023-07-22T00:58:25;22.60;82.90
14771;DHT22;7477;45.222;5.688;2023-07-22T01:01:45;22.60;83.00
14771;DHT22;7477;45.222;5.688;2023-07-22T01:05:05;22.60;83.20
14771;DHT22;7477;45.222;5.688;2023-07-22T01:08:24;22.60;83.00
14771;DHT22;7477;45.222;5.688;2023-07-22T01:11:44;22.60;82.70
14771;DHT22;7477;45.222;5.688;2023-07-22T01:15:04;22.50;83.10
14771;DHT22;7477;45.222;5.688;2023-07-22T01:18:26;22.40;83.30
14771;DHT22;7477;45.222;5.688;2023-07-22T01:21:47;22.30;83.30
14771;DHT22;7477;45.222;5.688;2023-07-22T01:25:07;22.20;83.60
14771;DHT22;7477;45.222;5.688;2023-07-22T01:28:26;22.20;83.70
14771;DHT22;7477;45.222;5.688;2023-07-22T01:31:48;22.20;83.70
14771;DHT22;7477;45.222;5.688;2023-07-22T01:35:08;22.10;83.70
14771;DHT22;7477;45.222;5.688;2023-07-22T01:38:27;22.10;83.70
14771;DHT22;7477;45.222;5.688;2023-07-22T01:41:48;22.20;83.70
14771;DHT22;7477;45.222;5.688;2023-07-22T01:45:08;22.10;83.60
14771;DHT22;7477;45.222;5.688;2023-07-22T01:48:27;22.10;83.50
14771;DHT22;7477;45.222;5.688;2023-07-22T01:51:47;22.10;83.70
14771;DHT22;7477;45.222;5.688;2023-07-22T01:55:07;22.10;83.80
14771;DHT22;7477;45.222;5.688;2023-07-22T01:58:30;22.00;83.70
14771;DHT22;7477;45.222;5.688;2023-07-22T02:01:49;21.90;83.80
14771;DHT22;7477;45.222;5.688;2023-07-22T02:05:08;21.90;83.90
14771;DHT22;7477;45.222;5.688;2023-07-22T02:08:31;21.90;84.00
14771;DHT22;7477;45.222;5.688;2023-07-22T02:11:51;22.00;83.80
14771;DHT22;7477;45.222;5.688;2023-07-22T02:15:10;21.90;84.10
14771;DHT22;7477;45.222;5.688;2023-07-22T02:18:29;21.90;84.10
14771;DHT22;7477;45.222;5.688;2023-07-22T02:21:48;21.80;84.10
14771;DHT22;7477;45.222;5.688;2023-07-22T02:25:08;22.00;83.90
14771;DHT22;7477;45.222;5.688;2023-07-22T02:28:29;21.90;83.80
14771;DHT22;7477;45.222;5.688;2023-07-22T02:31:48;21.80;84.00
14771;DHT22;7477;45.222;5.688;2023-07-22T02:35:08;21.70;84.10
14771;DHT22;7477;45.222;5.688;2023-07-22T02:38:28;21.60;84.20
14771;DHT22;7477;45.222;5.688;2023-07-22T02:41:48;21.60;84.20
14771;DHT22;7477;45.222;5.688;2023-07-22T02:45:08;21.40;84.50
14771;DHT22;7477;45.222;5.688;2023-07-22T02:48:27;21.40;83.90
14771;DHT22;7477;45.222;5.688;2023-07-22T02:51:47;21.30;84.30
14771;DHT22;7477;45.222;5.688;2023-07-22T02:55:13;21.30;84.00
14771;DHT22;7477;45.222;5.688;2023-07-22T02:58:33;21.30;83.80
14771;DHT22;7477;45.222;5.688;2023-07-22T03:01:52;21.20;83.90
14771;DHT22;7477;45.222;5.688;2023-07-22T03:05:11;21.10;84.00
14771;DHT22;7477;45.222;5.688;2023-07-22T03:08:31;21.00;83.70
14771;DHT22;7477;45.222;5.688;2023-07-22T03:11:50;21.00;83.80
14771;DHT22;7477;45.222;5.688;2023-07-22T03:15:09;21.00;83.50
14771;DHT22;7477;45.222;5.688;2023-07-22T03:18:31;21.00;83.50
14771;DHT22;7477;45.222;5.688;2023-07-22T03:21:51;20.90;83.80
14771;DHT22;7477;45.222;5.688;2023-07-22T03:25:12;20.80;83.60
14771;DHT22;7477;45.222;5.688;2023-07-22T03:28:31;20.70;83.80
14771;DHT22;7477;45.222;5.688;2023-07-22T03:31:50;20.80;83.20
14771;DHT22;7477;45.222;5.688;2023-07-22T03:35:10;20.70;83.10
14771;DHT22;7477;45.222;5.688;2023-07-22T03:38:30;20.50;83.70
14771;DHT22;7477;45.222;5.688;2023-07-22T03:41:50;20.40;83.80
14771;DHT22;7477;45.222;5.688;2023-07-22T03:45:09;20.40;83.60
14771;DHT22;7477;45.222;5.688;2023-07-22T03:48:29;20.40;83.80
14771;DHT22;7477;45.222;5.688;2023-07-22T03:51:48;20.50;84.40
14771;DHT22;7477;45.222;5.688;2023-07-22T03:55:07;20.40;84.20
14771;DHT22;7477;45.222;5.688;2023-07-22T03:58:27;20.50;83.90
14771;DHT22;7477;45.222;5.688;2023-07-22T04:01:46;20.30;84.00
14771;DHT22;7477;45.222;5.688;2023-07-22T04:05:07;20.30;83.90
14771;DHT22;7477;45.222;5.688;2023-07-22T04:08:26;20.20;83.60
14771;DHT22;7477;45.222;5.688;2023-07-22T04:11:45;20.20;83.70
14771;DHT22;7477;45.222;5.688;2023-07-22T04:15:05;20.50;82.90
14771;DHT22;7477;45.222;5.688;2023-07-22T04:18:24;20.60;82.90
14771;DHT22;7477;45.222;5.688;2023-07-22T04:21:43;20.30;82.70
14771;DHT22;7477;45.222;5.688;2023-07-22T04:25:03;20.20;83.10
14771;DHT22;7477;45.222;5.688;2023-07-22T04:28:24;20.20;83.80
14771;DHT22;7477;45.222;5.688;2023-07-22T04:31:43;20.20;83.70
14771;DHT22;7477;45.222;5.688;2023-07-22T04:35:02;20.10;83.60
14771;DHT22;7477;45.222;5.688;2023-07-22T04:38:22;20.10;83.60
14771;DHT22;7477;45.222;5.688;2023-07-22T04:41:41;20.10;83.60
14771;DHT22;7477;45.222;5.688;2023-07-22T04:45:00;20.20;84.00
14771;DHT22;7477;45.222;5.688;2023-07-22T04:48:21;20.20;84.10
14771;DHT22;7477;45.222;5.688;2023-07-22T04:51:41;20.20;85.00
14771;DHT22;7477;45.222;5.688;2023-07-22T04:55:01;20.20;85.50
14771;DHT22;7477;45.222;5.688;2023-07-22T04:58:27;20.10;84.50
14771;DHT22;7477;45.222;5.688;2023-07-22T05:01:47;20.00;85.20
14771;DHT22;7477;45.222;5.688;2023-07-22T05:05:06;20.00;84.60
14771;DHT22;7477;45.222;5.688;2023-07-22T05:08:26;20.00;85.60
14771;DHT22;7477;45.222;5.688;2023-07-22T05:11:45;20.00;85.40
14771;DHT22;7477;45.222;5.688;2023-07-22T05:15:05;20.00;86.30
14771;DHT22;7477;45.222;5.688;2023-07-22T05:18:25;20.00;86.40
14771;DHT22;7477;45.222;5.688;2023-07-22T05:21:44;20.00;86.60
14771;DHT22;7477;45.222;5.688;2023-07-22T05:25:04;20.10;86.90
14771;DHT22;7477;45.222;5.688;2023-07-22T05:28:23;20.10;88.20
14771;DHT22;7477;45.222;5.688;2023-07-22T05:31:42;20.10;88.50
14771;DHT22;7477;45.222;5.688;2023-07-22T05:35:02;20.00;87.60
14771;DHT22;7477;45.222;5.688;2023-07-22T05:38:23;20.00;86.90
14771;DHT22;7477;45.222;5.688;2023-07-22T05:41:43;20.00;87.60
14771;DHT22;7477;45.222;5.688;2023-07-22T05:45:03;19.90;87.70
14771;DHT22;7477;45.222;5.688;2023-07-22T05:48:22;19.90;88.90
14771;DHT22;7477;45.222;5.688;2023-07-22T05:51:41;19.90;88.70
14771;DHT22;7477;45.222;5.688;2023-07-22T05:55:01;19.80;89.30
14771;DHT22;7477;45.222;5.688;2023-07-22T05:58:20;19.80;90.00
14771;DHT22;7477;45.222;5.688;2023-07-22T06:01:39;19.80;90.30
14771;DHT22;7477;45.222;5.688;2023-07-22T06:04:59;19.90;90.90
14771;DHT22;7477;45.222;5.688;2023-07-22T06:08:18;19.90;90.70
14771;DHT22;7477;45.222;5.688;2023-07-22T06:11:38;19.90;90.30
14771;DHT22;7477;45.222;5.688;2023-07-22T06:14:57;20.00;90.70
14771;DHT22;7477;45.222;5.688;2023-07-22T06:18:17;20.00;91.60
14771;DHT22;7477;45.222;5.688;2023-07-22T06:21:36;20.00;91.40
14771;DHT22;7477;45.222;5.688;2023-07-22T06:24:55;20.00;92.20
14771;DHT22;7477;45.222;5.688;2023-07-22T06:28:14;20.00;92.00
14771;DHT22;7477;45.222;5.688;2023-07-22T06:31:33;20.10;92.80
14771;DHT22;7477;45.222;5.688;2023-07-22T06:34:52;20.10;93.40
14771;DHT22;7477;45.222;5.688;2023-07-22T06:38:12;20.10;93.30
14771;DHT22;7477;45.222;5.688;2023-07-22T06:41:31;20.10;93.00
14771;DHT22;7477;45.222;5.688;2023-07-22T06:44:50;20.10;93.10
14771;DHT22;7477;45.222;5.688;2023-07-22T06:48:09;20.20;94.20
14771;DHT22;7477;45.222;5.688;2023-07-22T06:51:28;20.20;94.70
14771;DHT22;7477;45.222;5.688;2023-07-22T06:54:47;20.30;95.40
14771;DHT22;7477;45.222;5.688;2023-07-22T06:58:06;20.20;95.40
14771;DHT22;7477;45.222;5.688;2023-07-22T07:01:25;20.20;95.60
14771;DHT22;7477;45.222;5.688;2023-07-22T07:04:45;20.20;95.20
14771;DHT22;7477;45.222;5.688;2023-07-22T07:08:04;20.10;94.40
14771;DHT22;7477;45.222;5.688;2023-07-22T07:11:24;20.10;94.80
14771;DHT22;7477;45.222;5.688;2023-07-22T07:14:43;20.20;94.60
14771;DHT22;7477;45.222;5.688;2023-07-22T07:18:03;20.50;94.80
14771;DHT22;7477;45.222;5.688;2023-07-22T07:21:22;20.60;94.20
14771;DHT22;7477;45.222;5.688;2023-07-22T07:24:42;20.70;93.50
14771;DHT22;7477;45.222;5.688;2023-07-22T07:28:01;20.80;93.10
14771;DHT22;7477;45.222;5.688;2023-07-22T07:31:21;20.80;92.80
14771;DHT22;7477;45.222;5.688;2023-07-22T07:34:40;20.90;93.10
14771;DHT22;7477;45.222;5.688;2023-07-22T07:37:59;21.00;93.30
14771;DHT22;7477;45.222;5.688;2023-07-22T07:41:19;21.00;93.40
14771;DHT22;7477;45.222;5.688;2023-07-22T07:44:38;21.10;93.40
14771;DHT22;7477;45.222;5.688;2023-07-22T07:47:57;21.10;92.70
14771;DHT22;7477;45.222;5.688;2023-07-22T07:51:17;21.10;92.60
14771;DHT22;7477;45.222;5.688;2023-07-22T07:54:37;21.10;92.60
14771;DHT22;7477;45.222;5.688;2023-07-22T07:57:56;21.20;92.40
14771;DHT22;7477;45.222;5.688;2023-07-22T08:01:16;21.20;92.70
14771;DHT22;7477;45.222;5.688;2023-07-22T08:04:35;21.30;92.00
14771;DHT22;7477;45.222;5.688;2023-07-22T08:07:55;21.20;91.70
14771;DHT22;7477;45.222;5.688;2023-07-22T08:11:14;21.30;91.80
14771;DHT22;7477;45.222;5.688;2023-07-22T08:14:34;21.40;92.00
14771;DHT22;7477;45.222;5.688;2023-07-22T08:17:53;21.40;92.40
14771;DHT22;7477;45.222;5.688;2023-07-22T08:21:12;21.50;92.60
14771;DHT22;7477;45.222;5.688;2023-07-22T08:24:32;21.50;92.60
14771;DHT22;7477;45.222;5.688;2023-07-22T08:27:51;21.50;92.40
14771;DHT22;7477;45.222;5.688;2023-07-22T08:31:10;21.60;92.40
14771;DHT22;7477;45.222;5.688;2023-07-22T08:34:30;21.60;92.50
14771;DHT22;7477;45.222;5.688;2023-07-22T08:37:49;21.60;92.10
14771;DHT22;7477;45.222;5.688;2023-07-22T08:41:08;21.60;92.20
14771;DHT22;7477;45.222;5.688;2023-07-22T08:44:34;21.70;92.40
14771;DHT22;7477;45.222;5.688;2023-07-22T08:47:58;21.70;92.00
14771;DHT22;7477;45.222;5.688;2023-07-22T08:51:18;21.80;91.70
14771;DHT22;7477;45.222;5.688;2023-07-22T08:54:38;21.80;91.70
14771;DHT22;7477;45.222;5.688;2023-07-22T08:57:58;21.80;91.10
14771;DHT22;7477;45.222;5.688;2023-07-22T09:01:18;21.80;91.10
14771;DHT22;7477;45.222;5.688;2023-07-22T09:04:37;21.80;91.40
14771;DHT22;7477;45.222;5.688;2023-07-22T09:07:57;21.90;91.00
14771;DHT22;7477;45.222;5.688;2023-07-22T09:11:19;21.90;90.50
14771;DHT22;7477;45.222;5.688;2023-07-22T09:14:38;21.90;90.70
14771;DHT22;7477;45.222;5.688;2023-07-22T09:17:59;21.90;90.60
14771;DHT22;7477;45.222;5.688;2023-07-22T09:21:18;22.00;90.60
14771;DHT22;7477;45.222;5.688;2023-07-22T09:24:37;22.00;90.60
14771;DHT22;7477;45.222;5.688;2023-07-22T09:28:00;22.00;90.00
14771;DHT22;7477;45.222;5.688;2023-07-22T09:31:24;22.00;90.50
14771;DHT22;7477;45.222;5.688;2023-07-22T09:34:54;22.10;90.20
14771;DHT22;7477;45.222;5.688;2023-07-22T09:38:15;22.10;90.10
14771;DHT22;7477;45.222;5.688;2023-07-22T09:41:42;22.20;89.50
14771;DHT22;7477;45.222;5.688;2023-07-22T09:45:01;22.30;90.00
14771;DHT22;7477;45.222;5.688;2023-07-22T09:48:21;22.30;89.40
14771;DHT22;7477;45.222;5.688;2023-07-22T09:51:41;22.30;89.50
14771;DHT22;7477;45.222;5.688;2023-07-22T09:55:01;22.20;89.70
14771;DHT22;7477;45.222;5.688;2023-07-22T09:58:20;22.20;90.00
14771;DHT22;7477;45.222;5.688;2023-07-22T10:01:40;22.40;89.80
14771;DHT22;7477;45.222;5.688;2023-07-22T10:05:02;22.40;89.80
14771;DHT22;7477;45.222;5.688;2023-07-22T10:08:23;22.40;89.70
14771;DHT22;7477;45.222;5.688;2023-07-22T10:11:44;22.40;89.70
14771;DHT22;7477;45.222;5.688;2023-07-22T10:15:04;22.40;88.80
14771;DHT22;7477;45.222;5.688;2023-07-22T10:18:24;22.50;89.40
14771;DHT22;7477;45.222;5.688;2023-07-22T10:21:45;22.60;88.90
14771;DHT22;7477;45.222;5.688;2023-07-22T10:25:05;22.70;87.30
14771;DHT22;7477;45.222;5.688;2023-07-22T10:28:26;22.80;87.70
14771;DHT22;7477;45.222;5.688;2023-07-22T10:31:45;22.70;87.70
14771;DHT22;7477;45.222;5.688;2023-07-22T10:35:07;22.80;87.80
14771;DHT22;7477;45.222;5.688;2023-07-22T10:38:29;22.90;87.30
14771;DHT22;7477;45.222;5.688;2023-07-22T10:41:48;22.90;87.20
14771;DHT22;7477;45.222;5.688;2023-07-22T10:45:27;23.00;87.10
14771;DHT22;7477;45.222;5.688;2023-07-22T10:48:47;23.00;86.50
14771;DHT22;7477;45.222;5.688;2023-07-22T10:52:06;23.00;86.00
14771;DHT22;7477;45.222;5.688;2023-07-22T10:55:25;23.00;85.50
14771;DHT22;7477;45.222;5.688;2023-07-22T11:02:07;23.10;85.00
14771;DHT22;7477;45.222;5.688;2023-07-22T11:05:47;23.10;85.00
14771;DHT22;7477;45.222;5.688;2023-07-22T11:09:06;23.20;84.60
14771;DHT22;7477;45.222;5.688;2023-07-22T11:12:27;23.10;84.50
14771;DHT22;7477;45.222;5.688;2023-07-22T11:15:48;23.10;84.50
14771;DHT22;7477;45.222;5.688;2023-07-22T11:19:08;23.20;84.10
14771;DHT22;7477;45.222;5.688;2023-07-22T11:22:27;23.30;83.90
14771;DHT22;7477;45.222;5.688;2023-07-22T11:25:48;23.30;83.70
14771;DHT22;7477;45.222;5.688;2023-07-22T11:29:08;23.30;83.70
14771;DHT22;7477;45.222;5.688;2023-07-22T11:32:28;23.20;83.90
14771;DHT22;7477;45.222;5.688;2023-07-22T11:35:47;23.20;83.90
14771;DHT22;7477;45.222;5.688;2023-07-22T11:39:09;23.30;83.60
14771;DHT22;7477;45.222;5.688;2023-07-22T11:42:29;23.40;83.50
14771;DHT22;7477;45.222;5.688;2023-07-22T11:45:49;23.40;82.50
14771;DHT22;7477;45.222;5.688;2023-07-22T11:49:09;23.50;82.60
14771;DHT22;7477;45.222;5.688;2023-07-22T11:52:28;23.50;81.70
14771;DHT22;7477;45.222;5.688;2023-07-22T11:55:47;23.60;81.40
14771;DHT22;7477;45.222;5.688;2023-07-22T11:59:07;23.60;80.40
14771;DHT22;7477;45.222;5.688;2023-07-22T12:02:28;23.50;81.30
14771;DHT22;7477;45.222;5.688;2023-07-22T12:05:53;23.90;75.30
14771;DHT22;7477;45.222;5.688;2023-07-22T12:09:12;23.80;79.80
14771;DHT22;7477;45.222;5.688;2023-07-22T12:16:02;24.00;77.10
14771;DHT22;7477;45.222;5.688;2023-07-22T12:19:22;23.70;79.90
14771;DHT22;7477;45.222;5.688;2023-07-22T12:22:42;24.10;77.90
14771;DHT22;7477;45.222;5.688;2023-07-22T12:26:02;24.10;77.30
14771;DHT22;7477;45.222;5.688;2023-07-22T12:29:21;24.10;78.90
14771;DHT22;7477;45.222;5.688;2023-07-22T12:32:41;24.10;77.50
14771;DHT22;7477;45.222;5.688;2023-07-22T12:36:00;24.10;77.80
14771;DHT22;7477;45.222;5.688;2023-07-22T12:39:20;24.00;78.50
14771;DHT22;7477;45.222;5.688;2023-07-22T12:42:42;24.60;70.90
14771;DHT22;7477;45.222;5.688;2023-07-22T12:46:01;25.40;68.40
14771;DHT22;7477;45.222;5.688;2023-07-22T12:49:20;25.60;67.20
14771;DHT22;7477;45.222;5.688;2023-07-22T12:52:39;25.70;66.30
14771;DHT22;7477;45.222;5.688;2023-07-22T12:55:58;25.80;68.60
14771;DHT22;7477;45.222;5.688;2023-07-22T12:59:18;26.10;64.70
14771;DHT22;7477;45.222;5.688;2023-07-22T13:02:37;26.10;64.80
14771;DHT22;7477;45.222;5.688;2023-07-22T13:05:57;26.20;65.10
14771;DHT22;7477;45.222;5.688;2023-07-22T13:09:18;26.20;65.10
14771;DHT22;7477;45.222;5.688;2023-07-22T13:12:37;26.40;63.30
14771;DHT22;7477;45.222;5.688;2023-07-22T13:15:56;26.40;61.70
14771;DHT22;7477;45.222;5.688;2023-07-22T13:19:16;26.50;63.20
14771;DHT22;7477;45.222;5.688;2023-07-22T13:22:35;26.50;64.40
14771;DHT22;7477;45.222;5.688;2023-07-22T13:25:55;26.70;63.00
14771;DHT22;7477;45.222;5.688;2023-07-22T13:29:14;26.80;62.00
14771;DHT22;7477;45.222;5.688;2023-07-22T13:32:33;26.70;62.90
14771;DHT22;7477;45.222;5.688;2023-07-22T13:35:52;26.80;61.10
14771;DHT22;7477;45.222;5.688;2023-07-22T13:39:11;26.90;60.80
14771;DHT22;7477;45.222;5.688;2023-07-22T13:42:30;26.80;61.10
14771;DHT22;7477;45.222;5.688;2023-07-22T13:45:50;26.90;60.80
14771;DHT22;7477;45.222;5.688;2023-07-22T13:49:09;26.90;61.00
14771;DHT22;7477;45.222;5.688;2023-07-22T13:52:28;27.00;61.10
14771;DHT22;7477;45.222;5.688;2023-07-22T13:55:47;27.20;60.20
14771;DHT22;7477;45.222;5.688;2023-07-22T13:59:07;27.30;60.30
14771;DHT22;7477;45.222;5.688;2023-07-22T14:02:27;27.40;59.70
14771;DHT22;7477;45.222;5.688;2023-07-22T14:05:46;27.50;59.50
14771;DHT22;7477;45.222;5.688;2023-07-22T14:09:05;27.70;59.10
14771;DHT22;7477;45.222;5.688;2023-07-22T14:12:24;27.70;58.90
14771;DHT22;7477;45.222;5.688;2023-07-22T14:15:43;27.70;58.60
14771;DHT22;7477;45.222;5.688;2023-07-22T14:19:03;27.90;58.40
14771;DHT22;7477;45.222;5.688;2023-07-22T14:22:22;27.90;58.60
14771;DHT22;7477;45.222;5.688;2023-07-22T14:25:41;28.10;58.80
14771;DHT22;7477;45.222;5.688;2023-07-22T14:29:00;28.20;57.90
14771;DHT22;7477;45.222;5.688;2023-07-22T14:32:19;28.20;58.20
14771;DHT22;7477;45.222;5.688;2023-07-22T14:35:39;28.30;58.60
14771;DHT22;7477;45.222;5.688;2023-07-22T14:38:58;28.50;57.70
14771;DHT22;7477;45.222;5.688;2023-07-22T14:42:17;28.50;58.00
14771;DHT22;7477;45.222;5.688;2023-07-22T14:45:36;28.60;56.80
14771;DHT22;7477;45.222;5.688;2023-07-22T14:48:55;28.60;57.30
14771;DHT22;7477;45.222;5.688;2023-07-22T14:52:15;28.60;57.30
14771;DHT22;7477;45.222;5.688;2023-07-22T14:55:34;28.70;57.00
14771;DHT22;7477;45.222;5.688;2023-07-22T14:58:53;28.80;58.30
14771;DHT22;7477;45.222;5.688;2023-07-22T15:02:12;28.90;58.30
14771;DHT22;7477;45.222;5.688;2023-07-22T15:05:31;29.00;56.80
14771;DHT22;7477;45.222;5.688;2023-07-22T15:08:51;28.90;56.80
14771;DHT22;7477;45.222;5.688;2023-07-22T15:12:10;29.00;57.40
14771;DHT22;7477;45.222;5.688;2023-07-22T15:15:29;29.00;58.30
14771;DHT22;7477;45.222;5.688;2023-07-22T15:18:48;29.10;57.20
14771;DHT22;7477;45.222;5.688;2023-07-22T15:22:08;29.10;57.20
14771;DHT22;7477;45.222;5.688;2023-07-22T15:25:27;29.20;56.90
14771;DHT22;7477;45.222;5.688;2023-07-22T15:28:46;29.20;57.10
14771;DHT22;7477;45.222;5.688;2023-07-22T15:32:06;29.20;57.00
14771;DHT22;7477;45.222;5.688;2023-07-22T15:35:25;29.30;56.90
14771;DHT22;7477;45.222;5.688;2023-07-22T15:38:44;29.30;56.10
14771;DHT22;7477;45.222;5.688;2023-07-22T15:42:04;29.40;57.30
14771;DHT22;7477;45.222;5.688;2023-07-22T15:45:23;29.40;56.40
14771;DHT22;7477;45.222;5.688;2023-07-22T15:48:43;29.50;55.90
14771;DHT22;7477;45.222;5.688;2023-07-22T15:52:02;29.50;55.90
14771;DHT22;7477;45.222;5.688;2023-07-22T15:55:23;29.50;56.40
14771;DHT22;7477;45.222;5.688;2023-07-22T15:58:42;29.60;55.70
14771;DHT22;7477;45.222;5.688;2023-07-22T16:02:01;29.50;55.70
14771;DHT22;7477;45.222;5.688;2023-07-22T16:05:21;29.50;55.50
14771;DHT22;7477;45.222;5.688;2023-07-22T16:08:40;29.70;55.90
14771;DHT22;7477;45.222;5.688;2023-07-22T16:12:01;29.80;55.20
14771;DHT22;7477;45.222;5.688;2023-07-22T16:15:21;29.80;54.90
14771;DHT22;7477;45.222;5.688;2023-07-22T16:18:40;29.80;54.20
14771;DHT22;7477;45.222;5.688;2023-07-22T16:21:59;29.80;53.40
14771;DHT22;7477;45.222;5.688;2023-07-22T16:25:18;29.90;53.90
14771;DHT22;7477;45.222;5.688;2023-07-22T16:28:38;29.90;54.60
14771;DHT22;7477;45.222;5.688;2023-07-22T16:31:57;29.60;53.20
14771;DHT22;7477;45.222;5.688;2023-07-22T16:35:16;29.20;52.90
14771;DHT22;7477;45.222;5.688;2023-07-22T16:38:35;29.00;52.60
14771;DHT22;7477;45.222;5.688;2023-07-22T16:41:54;28.80;52.00
14771;DHT22;7477;45.222;5.688;2023-07-22T16:45:14;28.70;51.70
14771;DHT22;7477;45.222;5.688;2023-07-22T16:48:33;28.70;53.00
14771;DHT22;7477;45.222;5.688;2023-07-22T16:51:52;28.70;54.70
14771;DHT22;7477;45.222;5.688;2023-07-22T16:55:11;28.70;54.60
14771;DHT22;7477;45.222;5.688;2023-07-22T16:58:31;28.60;55.10
14771;DHT22;7477;45.222;5.688;2023-07-22T17:01:50;28.50;55.90
14771;DHT22;7477;45.222;5.688;2023-07-22T17:05:09;28.40;56.30
14771;DHT22;7477;45.222;5.688;2023-07-22T17:08:29;28.40;55.70
14771;DHT22;7477;45.222;5.688;2023-07-22T17:11:48;28.30;56.00
14771;DHT22;7477;45.222;5.688;2023-07-22T17:15:08;28.30;55.00
14771;DHT22;7477;45.222;5.688;2023-07-22T17:18:28;28.50;54.80
14771;DHT22;7477;45.222;5.688;2023-07-22T17:21:47;28.60;55.30
14771;DHT22;7477;45.222;5.688;2023-07-22T17:25:06;28.30;56.00
14771;DHT22;7477;45.222;5.688;2023-07-22T17:28:26;28.20;57.30
14771;DHT22;7477;45.222;5.688;2023-07-22T17:31:45;28.10;56.40
14771;DHT22;7477;45.222;5.688;2023-07-22T17:35:04;28.00;59.50
14771;DHT22;7477;45.222;5.688;2023-07-22T17:38:23;27.90;59.60
14771;DHT22;7477;45.222;5.688;2023-07-22T17:41:43;27.80;59.50
14771;DHT22;7477;45.222;5.688;2023-07-22T17:45:04;27.80;58.60
14771;DHT22;7477;45.222;5.688;2023-07-22T17:48:24;27.70;58.80
14771;DHT22;7477;45.222;5.688;2023-07-22T17:51:43;27.70;58.80
14771;DHT22;7477;45.222;5.688;2023-07-22T17:55:02;27.60;57.80
14771;DHT22;7477;45.222;5.688;2023-07-22T17:58:22;27.60;57.90
14771;DHT22;7477;45.222;5.688;2023-07-22T18:01:41;27.50;57.60
14771;DHT22;7477;45.222;5.688;2023-07-22T18:05:00;27.50;58.10
14771;DHT22;7477;45.222;5.688;2023-07-22T18:08:20;27.40;58.50
14771;DHT22;7477;45.222;5.688;2023-07-22T18:11:39;27.40;58.80
14771;DHT22;7477;45.222;5.688;2023-07-22T18:14:58;27.40;59.20
14771;DHT22;7477;45.222;5.688;2023-07-22T18:18:18;27.30;60.30
14771;DHT22;7477;45.222;5.688;2023-07-22T18:21:37;27.30;60.50
14771;DHT22;7477;45.222;5.688;2023-07-22T18:24:56;27.20;61.10
14771;DHT22;7477;45.222;5.688;2023-07-22T18:28:15;27.20;60.70
14771;DHT22;7477;45.222;5.688;2023-07-22T18:31:34;27.10;61.20
14771;DHT22;7477;45.222;5.688;2023-07-22T18:34:54;27.10;62.50
14771;DHT22;7477;45.222;5.688;2023-07-22T18:38:17;27.10;61.30
14771;DHT22;7477;45.222;5.688;2023-07-22T18:41:37;27.00;61.90
14771;DHT22;7477;45.222;5.688;2023-07-22T18:44:56;27.00;62.50
14771;DHT22;7477;45.222;5.688;2023-07-22T18:48:16;26.90;63.40
14771;DHT22;7477;45.222;5.688;2023-07-22T18:51:35;26.90;64.80
14771;DHT22;7477;45.222;5.688;2023-07-22T18:54:54;26.80;63.70
14771;DHT22;7477;45.222;5.688;2023-07-22T18:58:13;26.80;63.00
14771;DHT22;7477;45.222;5.688;2023-07-22T19:01:32;26.70;62.60
14771;DHT22;7477;45.222;5.688;2023-07-22T19:04:52;26.40;62.60
14771;DHT22;7477;45.222;5.688;2023-07-22T19:08:11;26.40;62.90
14771;DHT22;7477;45.222;5.688;2023-07-22T19:11:31;26.30;63.20
14771;DHT22;7477;45.222;5.688;2023-07-22T19:14:50;26.30;63.30
14771;DHT22;7477;45.222;5.688;2023-07-22T19:18:12;26.30;63.00
14771;DHT22;7477;45.222;5.688;2023-07-22T19:21:31;26.20;63.30
14771;DHT22;7477;45.222;5.688;2023-07-22T19:24:50;26.00;63.70
14771;DHT22;7477;45.222;5.688;2023-07-22T19:28:09;26.00;63.40
14771;DHT22;7477;45.222;5.688;2023-07-22T19:31:28;25.90;63.60
14771;DHT22;7477;45.222;5.688;2023-07-22T19:34:48;25.90;63.70
14771;DHT22;7477;45.222;5.688;2023-07-22T19:38:07;26.00;63.80
14771;DHT22;7477;45.222;5.688;2023-07-22T19:41:26;26.10;63.80
14771;DHT22;7477;45.222;5.688;2023-07-22T19:44:45;26.00;64.30
14771;DHT22;7477;45.222;5.688;2023-07-22T19:48:06;25.70;65.60
14771;DHT22;7477;45.222;5.688;2023-07-22T19:51:25;25.60;66.90
14771;DHT22;7477;45.222;5.688;2023-07-22T19:54:45;25.70;64.90
14771;DHT22;7477;45.222;5.688;2023-07-22T19:58:04;25.50;65.00
14771;DHT22;7477;45.222;5.688;2023-07-22T20:01:23;25.60;65.50
14771;DHT22;7477;45.222;5.688;2023-07-22T20:04:42;25.70;66.70
14771;DHT22;7477;45.222;5.688;2023-07-22T20:08:01;25.20;69.90
14771;DHT22;7477;45.222;5.688;2023-07-22T20:11:21;24.90;69.80
14771;DHT22;7477;45.222;5.688;2023-07-22T20:14:40;24.90;71.20
14771;DHT22;7477;45.222;5.688;2023-07-22T20:18:00;24.80;71.80
14771;DHT22;7477;45.222;5.688;2023-07-22T20:21:19;24.70;72.70
14771;DHT22;7477;45.222;5.688;2023-07-22T20:24:38;24.60;73.60
14771;DHT22;7477;45.222;5.688;2023-07-22T20:27:58;24.50;74.30
14771;DHT22;7477;45.222;5.688;2023-07-22T20:31:17;24.40;75.00
14771;DHT22;7477;45.222;5.688;2023-07-22T20:34:36;24.30;76.30
14771;DHT22;7477;45.222;5.688;2023-07-22T20:37:56;24.10;76.90
14771;DHT22;7477;45.222;5.688;2023-07-22T20:41:15;24.20;77.20
14771;DHT22;7477;45.222;5.688;2023-07-22T20:44:45;24.00;77.70
14771;DHT22;7477;45.222;5.688;2023-07-22T20:48:04;23.80;78.10
14771;DHT22;7477;45.222;5.688;2023-07-22T20:51:23;23.70;78.70
14771;DHT22;7477;45.222;5.688;2023-07-22T20:54:46;23.70;78.50
14771;DHT22;7477;45.222;5.688;2023-07-22T20:58:05;23.60;78.90
14771;DHT22;7477;45.222;5.688;2023-07-22T21:01:24;23.50;79.00
14771;DHT22;7477;45.222;5.688;2023-07-22T21:04:43;23.30;78.50
14771;DHT22;7477;45.222;5.688;2023-07-22T21:08:02;23.20;78.30
14771;DHT22;7477;45.222;5.688;2023-07-22T21:11:22;23.10;77.70
14771;DHT22;7477;45.222;5.688;2023-07-22T21:14:42;23.10;78.50
14771;DHT22;7477;45.222;5.688;2023-07-22T21:18:01;23.20;78.40
14771;DHT22;7477;45.222;5.688;2023-07-22T21:21:22;23.20;74.90
14771;DHT22;7477;45.222;5.688;2023-07-22T21:24:41;23.10;77.10
14771;DHT22;7477;45.222;5.688;2023-07-22T21:28:01;23.00;77.40